sensor_id;sensor_type;location;lat;lon;timestamp;P1;durP1;ratioP1;P2;durP2;ratioP2
19560;SDS011;9927;47.792;10.616;2024-03-02T04:01:01;8.40;;;7.80;;
19560;SDS011;9927;47.792;10.616;2024-03-02T04:03:28;9.83;;;9.03;;
19560;SDS011;9927;47.792;10.616;2024-03-02T04:05:57;9.83;;;9.03;;
19560;SDS011;9927;47.792;10.616;2024-03-02T04:08:24;7.93;;;7.43;;
19560;SDS011;9927;47.792;10.616;2024-03-02T04:10:51;9.80;;;9.00;;
19560;SDS011;9927;47.792;10.616;2024-03-02T04:13:18;8.90;;;8.20;;
19560;SDS011;9927;47.792;10.616;2024-03-02T04:15:46;9.20;;;8.50;;
19560;SDS011;9927;47.792;10.616;2024-03-02T04:18:13;10.27;;;9.37;;
19560;SDS011;9927;47.792;10.616;2024-03-02T04:20:40;9.43;;;8.70;;
19560;SDS011;9927;47.792;10.616;2024-03-02T04:23:07;9.60;;;8.80;;
19560;SDS011;9927;47.792;10.616;2024-03-02T04:25:35;9.40;;;8.60;;
19560;SDS011;9927;47.792;10.616;2024-03-02T04:28:03;8.67;;;8.07;;
19560;SDS011;9927;47.792;10.616;2024-03-02T04:30:30;9.87;;;9.00;;
19560;SDS011;9927;47.792;10.616;2024-03-02T04:32:58;9.13;;;8.43;;
19560;SDS011;9927;47.792;10.616;2024-03-02T04:35:25;9.07;;;8.33;;
19560;SDS011;9927;47.792;10.616;2024-03-02T04:37:52;10.13;;;9.33;;
19560;SDS011;9927;47.792;10.616;2024-03-02T04:40:19;9.60;;;8.63;;
19560;SDS011;9927;47.792;10.616;2024-03-02T04:42:47;8.97;;;8.27;;
19560;SDS011;9927;47.792;10.616;2024-03-02T04:45:14;9.47;;;8.70;;
19560;SDS011;9927;47.792;10.616;2024-03-02T04:47:41;9.55;;;8.68;;
19560;SDS011;9927;47.792;10.616;2024-03-02T04:50:09;10.63;;;9.60;;
19560;SDS011;9927;47.792;10.616;2024-03-02T04:52:37;10.13;;;9.30;;
19560;SDS011;9927;47.792;10.616;2024-03-02T04:55:04;9.60;;;8.80;;
19560;SDS011;9927;47.792;10.616;2024-03-02T04:58:02;9.10;;;8.40;;
19560;SDS011;9927;47.792;10.616;2024-03-02T05:00:29;9.97;;;9.07;;
19560;SDS011;9927;47.792;10.616;2024-03-02T05:02:56;9.43;;;8.63;;
19560;SDS011;9927;47.792;10.616;2024-03-02T05:05:24;8.53;;;7.83;;
19560;SDS011;9927;47.792;10.616;2024-03-02T05:07:51;9.13;;;8.40;;
19560;SDS011;9927;47.792;10.616;2024-03-02T05:10:18;8.97;;;8.17;;
19560;SDS011;9927;47.792;10.616;2024-03-02T05:12:46;8.53;;;7.87;;
19560;SDS011;9927;47.792;10.616;2024-03-02T05:15:24;8.93;;;8.27;;
19560;SDS011;9927;47.792;10.616;2024-03-02T05:17:51;8.97;;;8.27;;
19560;SDS011;9927;47.792;10.616;2024-03-02T05:20:19;10.30;;;9.30;;
19560;SDS011;9927;47.792;10.616;2024-03-02T05:22:46;9.17;;;8.47;;
19560;SDS011;9927;47.792;10.616;2024-03-02T05:25:15;8.93;;;8.23;;
19560;SDS011;9927;47.792;10.616;2024-03-02T05:27:42;10.00;;;9.00;;
19560;SDS011;9927;47.792;10.616;2024-03-02T05:30:09;9.23;;;8.47;;
19560;SDS011;9927;47.792;10.616;2024-03-02T05:32:37;9.87;;;9.03;;
19560;SDS011;9927;47.792;10.616;2024-03-02T05:35:04;8.20;;;7.60;;
19560;SDS011;9927;47.792;10.616;2024-03-02T05:37:32;9.17;;;8.37;;
19560;SDS011;9927;47.792;10.616;2024-03-02T05:39:59;7.73;;;7.13;;
19560;SDS011;9927;47.792;10.616;2024-03-02T05:42:27;8.33;;;7.63;;
19560;SDS011;9927;47.792;10.616;2024-03-02T05:44:54;8.13;;;7.53;;
19560;SDS011;9927;47.792;10.616;2024-03-02T05:47:22;8.57;;;7.87;;
19560;SDS011;9927;47.792;10.616;2024-03-02T05:49:49;8.13;;;7.43;;
19560;SDS011;9927;47.792;10.616;2024-03-02T05:52:16;7.57;;;7.07;;
19560;SDS011;9927;47.792;10.616;2024-03-02T05:54:43;7.97;;;7.37;;
19560;SDS011;9927;47.792;10.616;2024-03-02T05:57:11;7.83;;;7.33;;
19560;SDS011;9927;47.792;10.616;2024-03-02T05:59:53;7.57;;;7.07;;
19560;SDS011;9927;47.792;10.616;2024-03-02T06:02:20;8.13;;;7.53;;
19560;SDS011;9927;47.792;10.616;2024-03-02T06:04:47;8.70;;;8.00;;
19560;SDS011;9927;47.792;10.616;2024-03-02T06:07:15;8.97;;;8.13;;
19560;SDS011;9927;47.792;10.616;2024-03-02T06:09:42;9.03;;;8.23;;
19560;SDS011;9927;47.792;10.616;2024-03-02T06:12:10;9.03;;;8.33;;
19560;SDS011;9927;47.792;10.616;2024-03-02T06:14:38;9.27;;;8.50;;
19560;SDS011;9927;47.792;10.616;2024-03-02T06:17:05;9.37;;;8.63;;
19560;SDS011;9927;47.792;10.616;2024-03-02T06:19:32;8.57;;;7.87;;
19560;SDS011;9927;47.792;10.616;2024-03-02T06:22:00;8.30;;;7.70;;
19560;SDS011;9927;47.792;10.616;2024-03-02T06:24:27;8.93;;;8.23;;
19560;SDS011;9927;47.792;10.616;2024-03-02T06:26:54;8.97;;;8.27;;
19560;SDS011;9927;47.792;10.616;2024-03-02T06:29:22;9.07;;;8.27;;
19560;SDS011;9927;47.792;10.616;2024-03-02T06:31:49;8.23;;;7.63;;
19560;SDS011;9927;47.792;10.616;2024-03-02T06:34:20;8.40;;;7.80;;
19560;SDS011;9927;47.792;10.616;2024-03-02T06:36:47;8.43;;;7.73;;
19560;SDS011;9927;47.792;10.616;2024-03-02T06:39:15;8.13;;;7.50;;
19560;SDS011;9927;47.792;10.616;2024-03-02T06:41:42;8.87;;;8.17;;
19560;SDS011;9927;47.792;10.616;2024-03-02T06:44:09;8.43;;;7.83;;
19560;SDS011;9927;47.792;10.616;2024-03-02T06:46:37;8.33;;;7.73;;
19560;SDS011;9927;47.792;10.616;2024-03-02T06:49:04;8.83;;;8.13;;
19560;SDS011;9927;47.792;10.616;2024-03-02T06:51:33;9.00;;;8.20;;
19560;SDS011;9927;47.792;10.616;2024-03-02T06:54:01;8.10;;;7.50;;
19560;SDS011;9927;47.792;10.616;2024-03-02T06:56:28;8.20;;;7.40;;
19560;SDS011;9927;47.792;10.616;2024-03-02T06:58:55;7.00;;;6.50;;
19560;SDS011;9927;47.792;10.616;2024-03-02T07:01:23;6.63;;;6.23;;
19560;SDS011;9927;47.792;10.616;2024-03-02T07:03:52;7.23;;;6.73;;
19560;SDS011;9927;47.792;10.616;2024-03-02T07:06:19;7.23;;;6.73;;
19560;SDS011;9927;47.792;10.616;2024-03-02T07:08:47;7.10;;;6.60;;
19560;SDS011;9927;47.792;10.616;2024-03-02T07:11:14;7.13;;;6.63;;
19560;SDS011;9927;47.792;10.616;2024-03-02T07:13:41;7.10;;;6.63;;
19560;SDS011;9927;47.792;10.616;2024-03-02T07:16:09;7.30;;;6.80;;
19560;SDS011;9927;47.792;10.616;2024-03-02T07:18:48;7.28;;;6.75;;
19560;SDS011;9927;47.792;10.616;2024-03-02T07:21:18;7.78;;;7.18;;
19560;SDS011;9927;47.792;10.616;2024-03-02T07:23:46;7.57;;;6.97;;
19560;SDS011;9927;47.792;10.616;2024-03-02T07:26:13;8.10;;;7.40;;
19560;SDS011;9927;47.792;10.616;2024-03-02T07:28:47;7.57;;;6.97;;
19560;SDS011;9927;47.792;10.616;2024-03-02T07:31:15;7.60;;;7.00;;
19560;SDS011;9927;47.792;10.616;2024-03-02T07:33:43;6.22;;;5.72;;
19560;SDS011;9927;47.792;10.616;2024-03-02T07:36:12;7.25;;;6.65;;
19560;SDS011;9927;47.792;10.616;2024-03-02T07:38:40;7.40;;;6.85;;
19560;SDS011;9927;47.792;10.616;2024-03-02T07:41:08;6.80;;;6.28;;
19560;SDS011;9927;47.792;10.616;2024-03-02T07:43:35;7.72;;;7.03;;
19560;SDS011;9927;47.792;10.616;2024-03-02T07:46:03;7.57;;;6.97;;
19560;SDS011;9927;47.792;10.616;2024-03-02T07:48:30;8.52;;;7.78;;
19560;SDS011;9927;47.792;10.616;2024-03-02T07:50:58;7.05;;;6.53;;
19560;SDS011;9927;47.792;10.616;2024-03-02T07:53:25;7.38;;;6.80;;
19560;SDS011;9927;47.792;10.616;2024-03-02T07:55:52;7.75;;;7.15;;
19560;SDS011;9927;47.792;10.616;2024-03-02T07:58:19;6.88;;;6.47;;
19560;SDS011;9927;47.792;10.616;2024-03-02T08:00:48;6.72;;;6.22;;
19560;SDS011;9927;47.792;10.616;2024-03-02T08:03:18;7.75;;;7.10;;
19560;SDS011;9927;47.792;10.616;2024-03-02T08:05:46;7.25;;;6.65;;
19560;SDS011;9927;47.792;10.616;2024-03-02T08:08:13;7.28;;;6.68;;
19560;SDS011;9927;47.792;10.616;2024-03-02T08:10:40;6.75;;;6.25;;
19560;SDS011;9927;47.792;10.616;2024-03-02T08:13:08;6.07;;;5.68;;
19560;SDS011;9927;47.792;10.616;2024-03-02T08:15:35;6.65;;;5.97;;
19560;SDS011;9927;47.792;10.616;2024-03-02T08:18:02;5.90;;;5.50;;
19560;SDS011;9927;47.792;10.616;2024-03-02T08:20:30;5.47;;;5.18;;
19560;SDS011;9927;47.792;10.616;2024-03-02T08:22:58;6.03;;;5.63;;
19560;SDS011;9927;47.792;10.616;2024-03-02T08:25:25;6.18;;;5.68;;
19560;SDS011;9927;47.792;10.616;2024-03-02T08:27:53;6.45;;;6.00;;
19560;SDS011;9927;47.792;10.616;2024-03-02T08:30:21;6.25;;;5.75;;
19560;SDS011;9927;47.792;10.616;2024-03-02T08:32:49;6.35;;;5.95;;
19560;SDS011;9927;47.792;10.616;2024-03-02T08:35:16;5.75;;;5.30;;
19560;SDS011;9927;47.792;10.616;2024-03-02T08:37:43;5.78;;;5.35;;
19560;SDS011;9927;47.792;10.616;2024-03-02T08:40:11;5.47;;;5.20;;
19560;SDS011;9927;47.792;10.616;2024-03-02T08:42:44;6.22;;;5.72;;
19560;SDS011;9927;47.792;10.616;2024-03-02T08:45:12;5.43;;;5.10;;
19560;SDS011;9927;47.792;10.616;2024-03-02T08:47:40;4.90;;;4.60;;
19560;SDS011;9927;47.792;10.616;2024-03-02T08:50:07;5.03;;;4.72;;
19560;SDS011;9927;47.792;10.616;2024-03-02T08:52:35;5.20;;;4.90;;
19560;SDS011;9927;47.792;10.616;2024-03-02T08:55:03;4.38;;;4.18;;
19560;SDS011;9927;47.792;10.616;2024-03-02T08:57:31;4.50;;;4.30;;
19560;SDS011;9927;47.792;10.616;2024-03-02T08:59:58;4.57;;;4.38;;
19560;SDS011;9927;47.792;10.616;2024-03-02T09:02:26;4.97;;;4.68;;
19560;SDS011;9927;47.792;10.616;2024-03-02T09:04:53;4.85;;;4.65;;
19560;SDS011;9927;47.792;10.616;2024-03-02T09:07:21;5.47;;;5.18;;
19560;SDS011;9927;47.792;10.616;2024-03-02T09:09:48;5.15;;;4.68;;
19560;SDS011;9927;47.792;10.616;2024-03-02T09:12:15;4.55;;;4.28;;
19560;SDS011;9927;47.792;10.616;2024-03-02T09:14:43;4.88;;;4.68;;
19560;SDS011;9927;47.792;10.616;2024-03-02T09:17:10;4.72;;;4.45;;
19560;SDS011;9927;47.792;10.616;2024-03-02T09:19:38;5.00;;;4.70;;
19560;SDS011;9927;47.792;10.616;2024-03-02T09:22:06;4.35;;;4.15;;
19560;SDS011;9927;47.792;10.616;2024-03-02T09:24:33;5.30;;;4.90;;
19560;SDS011;9927;47.792;10.616;2024-03-02T09:27:01;4.07;;;3.88;;
19560;SDS011;9927;47.792;10.616;2024-03-02T09:29:28;4.07;;;3.88;;
19560;SDS011;9927;47.792;10.616;2024-03-02T09:31:56;3.92;;;3.63;;
19560;SDS011;9927;47.792;10.616;2024-03-02T09:34:23;4.00;;;3.70;;
19560;SDS011;9927;47.792;10.616;2024-03-02T09:36:51;3.83;;;3.53;;
19560;SDS011;9927;47.792;10.616;2024-03-02T09:39:19;3.30;;;3.20;;
19560;SDS011;9927;47.792;10.616;2024-03-02T09:41:47;3.15;;;3.05;;
19560;SDS011;9927;47.792;10.616;2024-03-02T09:44:15;3.10;;;3.00;;
19560;SDS011;9927;47.792;10.616;2024-03-02T09:46:42;2.80;;;2.80;;
19560;SDS011;9927;47.792;10.616;2024-03-02T09:49:11;3.03;;;2.90;;
19560;SDS011;9927;47.792;10.616;2024-03-02T09:51:39;2.83;;;2.72;;
19560;SDS011;9927;47.792;10.616;2024-03-02T09:54:13;2.40;;;2.40;;
19560;SDS011;9927;47.792;10.616;2024-03-02T09:56:48;2.70;;;2.60;;
19560;SDS011;9927;47.792;10.616;2024-03-02T09:59:17;3.00;;;2.90;;
19560;SDS011;9927;47.792;10.616;2024-03-02T10:01:59;2.80;;;2.70;;
19560;SDS011;9927;47.792;10.616;2024-03-02T10:04:30;2.63;;;2.50;;
19560;SDS011;9927;47.792;10.616;2024-03-02T10:09:43;2.55;;;2.40;;
19560;SDS011;9927;47.792;10.616;2024-03-02T10:12:13;2.63;;;2.50;;
19560;SDS011;9927;47.792;10.616;2024-03-02T10:14:42;2.40;;;2.40;;
19560;SDS011;9927;47.792;10.616;2024-03-02T10:17:11;2.30;;;2.28;;
19560;SDS011;9927;47.792;10.616;2024-03-02T10:19:39;2.45;;;2.35;;
19560;SDS011;9927;47.792;10.616;2024-03-02T10:22:08;2.10;;;2.00;;
19560;SDS011;9927;47.792;10.616;2024-03-02T10:24:40;2.38;;;2.28;;
19560;SDS011;9927;47.792;10.616;2024-03-02T10:27:17;2.40;;;2.30;;
19560;SDS011;9927;47.792;10.616;2024-03-02T10:29:49;2.40;;;2.40;;
19560;SDS011;9927;47.792;10.616;2024-03-02T10:32:16;2.70;;;2.50;;
19560;SDS011;9927;47.792;10.616;2024-03-02T10:34:45;2.50;;;2.40;;
19560;SDS011;9927;47.792;10.616;2024-03-02T10:37:14;2.40;;;2.40;;
19560;SDS011;9927;47.792;10.616;2024-03-02T10:39:46;2.50;;;2.40;;
19560;SDS011;9927;47.792;10.616;2024-03-02T10:42:14;2.40;;;2.40;;
19560;SDS011;9927;47.792;10.616;2024-03-02T10:44:42;2.47;;;2.47;;
19560;SDS011;9927;47.792;10.616;2024-03-02T10:47:11;2.60;;;2.40;;
19560;SDS011;9927;47.792;10.616;2024-03-02T10:49:41;2.13;;;2.03;;
19560;SDS011;9927;47.792;10.616;2024-03-02T10:52:10;2.17;;;2.08;;
19560;SDS011;9927;47.792;10.616;2024-03-02T10:54:37;2.38;;;2.28;;
19560;SDS011;9927;47.792;10.616;2024-03-02T10:57:07;2.28;;;2.25;;
19560;SDS011;9927;47.792;10.616;2024-03-02T10:59:37;2.40;;;2.30;;
19560;SDS011;9927;47.792;10.616;2024-03-02T11:02:10;2.25;;;2.25;;
19560;SDS011;9927;47.792;10.616;2024-03-02T11:04:40;2.38;;;2.30;;
19560;SDS011;9927;47.792;10.616;2024-03-02T11:07:09;2.28;;;2.28;;
19560;SDS011;9927;47.792;10.616;2024-03-02T11:09:41;2.40;;;2.40;;
19560;SDS011;9927;47.792;10.616;2024-03-02T11:12:31;2.75;;;2.65;;
19560;SDS011;9927;47.792;10.616;2024-03-02T11:15:04;2.63;;;2.47;;
19560;SDS011;9927;47.792;10.616;2024-03-02T11:17:37;2.60;;;2.50;;
19560;SDS011;9927;47.792;10.616;2024-03-02T11:20:07;3.78;;;2.60;;
19560;SDS011;9927;47.792;10.616;2024-03-02T11:22:36;2.88;;;2.70;;
19560;SDS011;9927;47.792;10.616;2024-03-02T11:25:03;2.70;;;2.60;;
19560;SDS011;9927;47.792;10.616;2024-03-02T11:33:07;3.05;;;2.95;;
19560;SDS011;9927;47.792;10.616;2024-03-02T11:35:38;2.40;;;2.40;;
19560;SDS011;9927;47.792;10.616;2024-03-02T11:38:17;2.70;;;2.60;;
19560;SDS011;9927;47.792;10.616;2024-03-02T11:40:45;2.60;;;2.60;;
19560;SDS011;9927;47.792;10.616;2024-03-02T11:43:13;2.85;;;2.75;;
19560;SDS011;9927;47.792;10.616;2024-03-02T11:45:41;3.00;;;2.90;;
19560;SDS011;9927;47.792;10.616;2024-03-02T11:48:13;3.05;;;2.92;;
19560;SDS011;9927;47.792;10.616;2024-03-02T11:50:49;3.40;;;3.20;;
19560;SDS011;9927;47.792;10.616;2024-03-02T11:53:17;3.83;;;3.63;;
19560;SDS011;9927;47.792;10.616;2024-03-02T11:55:46;3.55;;;3.30;;
19560;SDS011;9927;47.792;10.616;2024-03-02T11:58:14;4.05;;;3.60;;
19560;SDS011;9927;47.792;10.616;2024-03-02T12:00:50;3.65;;;3.45;;
19560;SDS011;9927;47.792;10.616;2024-03-02T12:03:18;3.60;;;3.30;;
19560;SDS011;9927;47.792;10.616;2024-03-02T12:05:52;3.60;;;3.40;;
19560;SDS011;9927;47.792;10.616;2024-03-02T12:08:21;4.10;;;3.70;;
19560;SDS011;9927;47.792;10.616;2024-03-02T12:11:01;3.72;;;3.53;;
19560;SDS011;9927;47.792;10.616;2024-03-02T12:13:30;3.78;;;3.50;;
19560;SDS011;9927;47.792;10.616;2024-03-02T12:15:58;4.35;;;3.95;;
19560;SDS011;9927;47.792;10.616;2024-03-02T12:18:26;5.70;;;4.60;;
19560;SDS011;9927;47.792;10.616;2024-03-02T12:20:54;4.25;;;3.90;;
19560;SDS011;9927;47.792;10.616;2024-03-02T12:23:25;4.10;;;3.90;;
19560;SDS011;9927;47.792;10.616;2024-03-02T12:25:53;3.90;;;3.70;;
19560;SDS011;9927;47.792;10.616;2024-03-02T12:28:22;4.47;;;4.20;;
19560;SDS011;9927;47.792;10.616;2024-03-02T12:30:49;4.13;;;3.88;;
19560;SDS011;9927;47.792;10.616;2024-03-02T12:33:17;4.10;;;3.80;;
19560;SDS011;9927;47.792;10.616;2024-03-02T12:35:44;4.20;;;4.00;;
19560;SDS011;9927;47.792;10.616;2024-03-02T12:38:12;4.38;;;4.07;;
19560;SDS011;9927;47.792;10.616;2024-03-02T12:40:40;4.30;;;4.10;;
19560;SDS011;9927;47.792;10.616;2024-03-02T12:43:07;4.50;;;4.30;;
19560;SDS011;9927;47.792;10.616;2024-03-02T12:45:35;3.95;;;3.75;;
19560;SDS011;9927;47.792;10.616;2024-03-02T12:48:03;4.13;;;3.80;;
19560;SDS011;9927;47.792;10.616;2024-03-02T12:50:32;4.90;;;4.60;;
19560;SDS011;9927;47.792;10.616;2024-03-02T12:53:00;4.28;;;3.97;;
19560;SDS011;9927;47.792;10.616;2024-03-02T12:55:28;4.40;;;4.10;;
19560;SDS011;9927;47.792;10.616;2024-03-02T12:57:56;4.15;;;3.95;;
19560;SDS011;9927;47.792;10.616;2024-03-02T13:00:26;4.20;;;3.97;;
19560;SDS011;9927;47.792;10.616;2024-03-02T13:02:53;4.43;;;4.13;;
19560;SDS011;9927;47.792;10.616;2024-03-02T13:05:20;4.38;;;4.00;;
19560;SDS011;9927;47.792;10.616;2024-03-02T13:07:48;3.85;;;3.65;;
19560;SDS011;9927;47.792;10.616;2024-03-02T13:10:16;3.83;;;3.63;;
19560;SDS011;9927;47.792;10.616;2024-03-02T13:12:45;4.13;;;3.90;;
19560;SDS011;9927;47.792;10.616;2024-03-02T13:15:13;3.85;;;3.65;;
19560;SDS011;9927;47.792;10.616;2024-03-02T13:17:46;4.10;;;3.90;;
19560;SDS011;9927;47.792;10.616;2024-03-02T13:20:14;3.90;;;3.55;;
19560;SDS011;9927;47.792;10.616;2024-03-02T13:22:42;3.97;;;3.78;;
19560;SDS011;9927;47.792;10.616;2024-03-02T13:25:09;3.53;;;3.33;;
19560;SDS011;9927;47.792;10.616;2024-03-02T13:27:38;3.83;;;3.60;;
19560;SDS011;9927;47.792;10.616;2024-03-02T13:30:06;3.80;;;3.60;;
19560;SDS011;9927;47.792;10.616;2024-03-02T13:32:36;4.07;;;3.88;;
19560;SDS011;9927;47.792;10.616;2024-03-02T13:35:03;3.90;;;3.70;;
19560;SDS011;9927;47.792;10.616;2024-03-02T13:37:31;4.40;;;4.10;;
19560;SDS011;9927;47.792;10.616;2024-03-02T13:39:59;4.70;;;4.40;;
19560;SDS011;9927;47.792;10.616;2024-03-02T13:42:26;5.05;;;4.75;;
19560;SDS011;9927;47.792;10.616;2024-03-02T13:44:54;4.43;;;4.13;;
19560;SDS011;9927;47.792;10.616;2024-03-02T13:47:21;4.28;;;4.07;;
19560;SDS011;9927;47.792;10.616;2024-03-02T13:49:49;4.47;;;4.18;;
19560;SDS011;9927;47.792;10.616;2024-03-02T13:52:16;4.55;;;4.20;;
19560;SDS011;9927;47.792;10.616;2024-03-02T13:54:45;4.15;;;3.85;;
19560;SDS011;9927;47.792;10.616;2024-03-02T13:57:13;4.30;;;4.10;;
19560;SDS011;9927;47.792;10.616;2024-03-02T13:59:41;4.50;;;4.20;;
19560;SDS011;9927;47.792;10.616;2024-03-02T14:02:10;4.60;;;4.20;;
19560;SDS011;9927;47.792;10.616;2024-03-02T14:04:39;4.63;;;4.25;;
19560;SDS011;9927;47.792;10.616;2024-03-02T14:07:06;4.40;;;4.07;;
19560;SDS011;9927;47.792;10.616;2024-03-02T14:09:35;4.50;;;4.20;;
19560;SDS011;9927;47.792;10.616;2024-03-02T14:12:03;4.85;;;4.47;;
19560;SDS011;9927;47.792;10.616;2024-03-02T14:14:32;4.88;;;4.57;;
19560;SDS011;9927;47.792;10.616;2024-03-02T14:17:00;4.93;;;4.53;;
19560;SDS011;9927;47.792;10.616;2024-03-02T14:19:30;4.90;;;4.50;;
19560;SDS011;9927;47.792;10.616;2024-03-02T14:21:58;4.60;;;4.18;;
19560;SDS011;9927;47.792;10.616;2024-03-02T14:24:26;4.45;;;4.13;;
19560;SDS011;9927;47.792;10.616;2024-03-02T14:26:56;4.75;;;4.35;;
19560;SDS011;9927;47.792;10.616;2024-03-02T14:29:36;4.63;;;4.25;;
19560;SDS011;9927;47.792;10.616;2024-03-02T14:32:06;4.03;;;3.80;;
19560;SDS011;9927;47.792;10.616;2024-03-02T14:34:33;4.03;;;3.72;;
19560;SDS011;9927;47.792;10.616;2024-03-02T14:37:03;4.18;;;3.88;;
19560;SDS011;9927;47.792;10.616;2024-03-02T14:39:31;3.97;;;3.70;;
19560;SDS011;9927;47.792;10.616;2024-03-02T14:42:01;6.65;;;4.35;;
19560;SDS011;9927;47.792;10.616;2024-03-02T14:44:29;4.70;;;4.40;;
19560;SDS011;9927;47.792;10.616;2024-03-02T14:46:56;4.63;;;4.22;;
19560;SDS011;9927;47.792;10.616;2024-03-02T14:49:27;4.30;;;4.00;;
19560;SDS011;9927;47.792;10.616;2024-03-02T14:51:54;4.82;;;4.43;;
19560;SDS011;9927;47.792;10.616;2024-03-02T14:54:22;4.63;;;4.32;;
19560;SDS011;9927;47.792;10.616;2024-03-02T14:56:49;5.57;;;4.78;;
19560;SDS011;9927;47.792;10.616;2024-03-02T14:59:17;5.15;;;4.70;;
19560;SDS011;9927;47.792;10.616;2024-03-02T15:01:44;9.25;;;4.88;;
19560;SDS011;9927;47.792;10.616;2024-03-02T15:04:12;4.90;;;4.50;;
19560;SDS011;9927;47.792;10.616;2024-03-02T15:06:39;6.50;;;5.30;;
19560;SDS011;9927;47.792;10.616;2024-03-02T15:09:06;5.05;;;4.65;;
19560;SDS011;9927;47.792;10.616;2024-03-02T15:11:34;5.40;;;5.00;;
19560;SDS011;9927;47.792;10.616;2024-03-02T15:14:02;5.60;;;5.18;;
19560;SDS011;9927;47.792;10.616;2024-03-02T15:16:29;6.22;;;5.53;;
19560;SDS011;9927;47.792;10.616;2024-03-02T15:18:56;6.28;;;5.78;;
19560;SDS011;9927;47.792;10.616;2024-03-02T15:21:24;7.10;;;6.40;;
19560;SDS011;9927;47.792;10.616;2024-03-02T15:23:51;6.35;;;5.82;;
19560;SDS011;9927;47.792;10.616;2024-03-02T15:26:18;7.38;;;6.63;;
19560;SDS011;9927;47.792;10.616;2024-03-02T15:28:46;7.72;;;6.25;;
19560;SDS011;9927;47.792;10.616;2024-03-02T15:31:13;8.18;;;6.30;;
19560;SDS011;9927;47.792;10.616;2024-03-02T15:33:40;7.80;;;7.00;;
19560;SDS011;9927;47.792;10.616;2024-03-02T15:36:08;7.38;;;6.68;;
19560;SDS011;9927;47.792;10.616;2024-03-02T15:38:35;9.32;;;7.47;;
19560;SDS011;9927;47.792;10.616;2024-03-02T15:41:08;7.40;;;6.70;;
19560;SDS011;9927;47.792;10.616;2024-03-02T15:43:35;7.13;;;6.53;;
19560;SDS011;9927;47.792;10.616;2024-03-02T15:46:05;8.15;;;6.63;;
19560;SDS011;9927;47.792;10.616;2024-03-02T15:48:33;8.52;;;6.88;;
19560;SDS011;9927;47.792;10.616;2024-03-02T15:51:01;9.80;;;7.80;;
19560;SDS011;9927;47.792;10.616;2024-03-02T15:53:32;8.25;;;7.40;;
19560;SDS011;9927;47.792;10.616;2024-03-02T15:56:00;8.43;;;7.63;;
19560;SDS011;9927;47.792;10.616;2024-03-02T15:58:30;9.55;;;7.72;;
19560;SDS011;9927;47.792;10.616;2024-03-02T16:00:57;7.80;;;6.85;;
19560;SDS011;9927;47.792;10.616;2024-03-02T16:03:25;7.82;;;7.03;;
19560;SDS011;9927;47.792;10.616;2024-03-02T16:05:52;8.48;;;7.15;;
19560;SDS011;9927;47.792;10.616;2024-03-02T16:08:20;8.63;;;6.85;;
19560;SDS011;9927;47.792;10.616;2024-03-02T16:10:47;7.13;;;6.43;;
19560;SDS011;9927;47.792;10.616;2024-03-02T16:13:14;7.32;;;5.97;;
19560;SDS011;9927;47.792;10.616;2024-03-02T16:15:43;7.32;;;6.30;;
19560;SDS011;9927;47.792;10.616;2024-03-02T16:18:10;8.65;;;6.40;;
19560;SDS011;9927;47.792;10.616;2024-03-02T16:20:38;7.20;;;6.60;;
19560;SDS011;9927;47.792;10.616;2024-03-02T16:23:05;7.95;;;6.82;;
19560;SDS011;9927;47.792;10.616;2024-03-02T16:25:33;8.70;;;6.85;;
19560;SDS011;9927;47.792;10.616;2024-03-02T16:28:03;7.72;;;6.95;;
19560;SDS011;9927;47.792;10.616;2024-03-02T16:30:31;9.05;;;7.28;;
19560;SDS011;9927;47.792;10.616;2024-03-02T16:32:58;7.78;;;6.57;;
19560;SDS011;9927;47.792;10.616;2024-03-02T16:35:26;8.40;;;7.25;;
19560;SDS011;9927;47.792;10.616;2024-03-02T16:37:53;9.63;;;7.10;;
19560;SDS011;9927;47.792;10.616;2024-03-02T16:40:20;9.10;;;7.00;;
19560;SDS011;9927;47.792;10.616;2024-03-02T16:42:48;7.80;;;7.10;;
19560;SDS011;9927;47.792;10.616;2024-03-02T16:45:15;8.77;;;7.75;;
19560;SDS011;9927;47.792;10.616;2024-03-02T16:47:43;10.02;;;8.30;;
19560;SDS011;9927;47.792;10.616;2024-03-02T16:50:10;9.93;;;8.15;;
19560;SDS011;9927;47.792;10.616;2024-03-02T16:52:38;8.25;;;7.45;;
19560;SDS011;9927;47.792;10.616;2024-03-02T16:55:06;8.30;;;7.47;;
19560;SDS011;9927;47.792;10.616;2024-03-02T16:57:34;9.43;;;8.27;;
19560;SDS011;9927;47.792;10.616;2024-03-02T17:00:01;9.30;;;7.75;;
19560;SDS011;9927;47.792;10.616;2024-03-02T17:02:29;10.07;;;9.00;;
19560;SDS011;9927;47.792;10.616;2024-03-02T17:04:56;10.50;;;9.30;;
19560;SDS011;9927;47.792;10.616;2024-03-02T17:07:23;8.88;;;7.97;;
19560;SDS011;9927;47.792;10.616;2024-03-02T17:09:52;10.25;;;8.00;;
19560;SDS011;9927;47.792;10.616;2024-03-02T17:12:22;8.95;;;8.10;;
19560;SDS011;9927;47.792;10.616;2024-03-02T17:14:50;8.73;;;7.82;;
19560;SDS011;9927;47.792;10.616;2024-03-02T17:17:17;8.90;;;7.60;;
19560;SDS011;9927;47.792;10.616;2024-03-02T17:19:45;9.80;;;7.78;;
19560;SDS011;9927;47.792;10.616;2024-03-02T17:22:12;9.05;;;7.90;;
19560;SDS011;9927;47.792;10.616;2024-03-02T17:24:39;9.32;;;8.07;;
19560;SDS011;9927;47.792;10.616;2024-03-02T17:27:07;9.30;;;8.32;;
19560;SDS011;9927;47.792;10.616;2024-03-02T17:29:34;9.77;;;8.77;;
19560;SDS011;9927;47.792;10.616;2024-03-02T17:32:01;9.25;;;8.25;;
19560;SDS011;9927;47.792;10.616;2024-03-02T17:34:29;8.80;;;7.93;;
19560;SDS011;9927;47.792;10.616;2024-03-02T17:36:56;10.77;;;9.63;;
19560;SDS011;9927;47.792;10.616;2024-03-02T17:39:24;9.43;;;8.27;;
19560;SDS011;9927;47.792;10.616;2024-03-02T17:41:51;9.93;;;8.85;;
19560;SDS011;9927;47.792;10.616;2024-03-02T17:44:20;9.85;;;8.65;;
19560;SDS011;9927;47.792;10.616;2024-03-02T17:46:47;10.55;;;9.50;;
19560;SDS011;9927;47.792;10.616;2024-03-02T17:49:14;10.93;;;8.82;;
19560;SDS011;9927;47.792;10.616;2024-03-02T17:51:46;9.30;;;8.40;;
19560;SDS011;9927;47.792;10.616;2024-03-02T17:54:13;9.60;;;8.60;;
19560;SDS011;9927;47.792;10.616;2024-03-02T17:56:41;9.65;;;8.63;;
19560;SDS011;9927;47.792;10.616;2024-03-02T17:59:08;11.50;;;9.23;;
19560;SDS011;9927;47.792;10.616;2024-03-02T18:01:35;15.07;;;12.48;;
19560;SDS011;9927;47.792;10.616;2024-03-02T18:04:02;14.25;;;11.75;;
19560;SDS011;9927;47.792;10.616;2024-03-02T18:06:35;16.90;;;12.02;;
19560;SDS011;9927;47.792;10.616;2024-03-02T18:09:03;15.15;;;12.05;;
19560;SDS011;9927;47.792;10.616;2024-03-02T18:11:30;13.07;;;10.95;;
19560;SDS011;9927;47.792;10.616;2024-03-02T18:13:57;14.75;;;11.18;;
19560;SDS011;9927;47.792;10.616;2024-03-02T18:16:25;13.52;;;11.45;;
19560;SDS011;9927;47.792;10.616;2024-03-02T18:18:52;19.75;;;13.15;;
19560;SDS011;9927;47.792;10.616;2024-03-02T18:21:19;15.98;;;11.93;;
19560;SDS011;9927;47.792;10.616;2024-03-02T18:23:47;14.60;;;12.07;;
19560;SDS011;9927;47.792;10.616;2024-03-02T18:26:14;17.90;;;14.13;;
19560;SDS011;9927;47.792;10.616;2024-03-02T18:28:42;21.42;;;16.25;;
19560;SDS011;9927;47.792;10.616;2024-03-02T18:31:10;19.25;;;15.57;;
19560;SDS011;9927;47.792;10.616;2024-03-02T18:33:37;22.15;;;15.68;;
19560;SDS011;9927;47.792;10.616;2024-03-02T18:36:05;24.07;;;17.27;;
19560;SDS011;9927;47.792;10.616;2024-03-02T18:38:33;29.13;;;19.08;;
19560;SDS011;9927;47.792;10.616;2024-03-02T18:41:00;28.58;;;18.98;;
19560;SDS011;9927;47.792;10.616;2024-03-02T18:43:27;21.97;;;15.97;;
19560;SDS011;9927;47.792;10.616;2024-03-02T18:45:54;19.73;;;15.70;;
19560;SDS011;9927;47.792;10.616;2024-03-02T18:48:22;17.05;;;14.07;;
19560;SDS011;9927;47.792;10.616;2024-03-02T18:50:50;18.87;;;14.37;;
19560;SDS011;9927;47.792;10.616;2024-03-02T18:53:17;17.83;;;14.60;;
19560;SDS011;9927;47.792;10.616;2024-03-02T18:55:44;18.17;;;13.93;;
19560;SDS011;9927;47.792;10.616;2024-03-02T18:58:11;18.30;;;14.87;;
19560;SDS011;9927;47.792;10.616;2024-03-02T19:00:39;20.35;;;15.40;;